Time;durP1;ratioP1;P1;durP2;ratioP2;P2;SDS_P1;SDS_P2;PMS_P1;PMS_P2;Temp;Humidity;BMP_temperature;BMP_pressure;BME280_temperature;BME280_humidity;BME280_pressure;Samples;Min_cycle;Max_cycle;Signal;HPM_P1;HPM_P2
2022/02/17 00:00:13;;;;;;;0.00;0.00;;;;;;;12.17;90.61;97403.00;5028537;28;20087;-72
2022/02/17 00:02:44;;;;;;;0.00;0.00;;;;;;;12.03;90.09;97388.16;5031118;28;20091;-72
2022/02/17 00:05:11;;;;;;;0.10;0.00;;;;;;;12.26;89.72;97423.22;5028832;28;20025;-72
2022/02/17 00:07:37;;;;;;;0.00;0.00;;;;;;;12.27;88.36;97413.19;5031238;28;20034;-73
2022/02/17 00:10:04;;;;;;;0.22;0.00;;;;;;;12.24;88.06;97389.28;5017311;28;20040;-72
2022/02/17 00:12:30;;;;;;;0.17;0.00;;;;;;;12.08;87.33;97366.56;5026419;28;20056;-72
2022/02/17 00:14:57;;;;;;;0.00;0.00;;;;;;;12.47;85.05;97413.50;5027754;28;20059;-72
2022/02/17 00:17:22;;;;;;;0.00;0.00;;;;;;;12.65;83.56;97397.97;5031185;28;20057;-72
2022/02/17 00:19:47;;;;;;;0.00;0.00;;;;;;;12.70;81.24;97370.91;5029163;28;20469;-73
2022/02/17 00:22:13;;;;;;;1.27;0.00;;;;;;;12.77;80.31;97357.16;5032559;28;20021;-73
2022/02/17 00:24:38;;;;;;;0.47;0.08;;;;;;;12.84;79.50;97377.63;5020506;28;20025;-73
2022/02/17 00:27:04;;;;;;;0.10;0.00;;;;;;;12.80;79.87;97365.59;5019411;28;20059;-73
2022/02/17 00:29:29;;;;;;;0.30;0.10;;;;;;;12.99;79.61;97395.16;5029312;28;20486;-73
2022/02/17 00:31:54;;;;;;;0.15;0.00;;;;;;;12.80;80.14;97367.50;5027126;28;20033;-73
2022/02/17 00:34:20;;;;;;;0.50;0.10;;;;;;;12.76;81.64;97366.34;5027930;28;20061;-73
2022/02/17 00:36:45;;;;;;;0.00;0.00;;;;;;;12.66;82.72;97377.94;5017355;28;20492;-73
2022/02/17 00:39:10;;;;;;;0.85;0.10;;;;;;;12.56;82.21;97356.91;5029053;28;20034;-73
2022/02/17 00:41:36;;;;;;;0.03;0.03;;;;;;;12.70;83.13;97379.03;5019721;28;20033;-73
2022/02/17 00:44:01;;;;;;;0.20;0.00;;;;;;;12.57;85.38;97376.72;5022513;28;20075;-73
2022/02/17 00:46:27;;;;;;;1.85;0.00;;;;;;;12.23;88.08;97365.94;5017932;28;20091;-73
2022/02/17 00:48:53;;;;;;;0.00;0.00;;;;;;;12.14;89.77;97365.53;5031911;28;20030;-73
2022/02/17 00:51:18;;;;;;;0.10;0.00;;;;;;;11.99;91.09;97374.25;5015922;28;20030;-72
2022/02/17 00:53:44;;;;;;;0.08;0.00;;;;;;;12.01;91.04;97388.41;5025981;28;20028;-73
2022/02/17 00:56:09;;;;;;;0.08;0.00;;;;;;;11.75;92.16;97372.75;5022340;28;20030;-72
2022/02/17 00:58:34;;;;;;;0.00;0.00;;;;;;;11.63;92.54;97365.53;5019048;28;20054;-73
2022/02/17 01:00:59;;;;;;;0.10;0.00;;;;;;;11.77;92.58;97381.47;5028797;28;20037;-73
2022/02/17 01:03:25;;;;;;;0.77;0.08;;;;;;;11.76;92.52;97394.22;5021000;28;20037;-73
2022/02/17 01:05:50;;;;;;;0.22;0.00;;;;;;;11.73;93.16;97412.81;5027225;28;20025;-72
2022/02/17 01:08:15;;;;;;;0.00;0.00;;;;;;;11.74;94.33;97422.63;5020173;28;20034;-73
2022/02/17 01:10:40;;;;;;;0.20;0.00;;;;;;;11.71;94.21;97402.25;5034307;28;20498;-72
2022/02/17 01:13:06;;;;;;;0.00;0.00;;;;;;;11.74;94.59;97409.88;5031798;28;20033;-72
2022/02/17 01:15:32;;;;;;;0.00;0.00;;;;;;;11.65;94.98;97402.41;5031716;28;20029;-72
2022/02/17 01:17:57;;;;;;;0.00;0.00;;;;;;;11.63;94.94;97365.53;5032781;28;20025;-72
2022/02/17 01:20:23;;;;;;;0.00;0.00;;;;;;;11.65;95.61;97369.88;5029198;28;20025;-72
2022/02/17 01:22:49;;;;;;;0.00;0.00;;;;;;;11.66;96.15;97383.19;5028193;28;20472;-72
2022/02/17 01:25:15;;;;;;;0.10;0.00;;;;;;;11.69;96.36;97400.84;5031180;28;20022;-73
2022/02/17 01:27:40;;;;;;;0.10;0.03;;;;;;;11.48;97.51;97380.72;5021612;28;20130;-73
2022/02/17 01:30:06;;;;;;;0.00;0.00;;;;;;;11.49;97.67;97385.06;5024178;28;20443;-73
2022/02/17 01:32:32;;;;;;;0.10;0.00;;;;;;;11.27;98.81;97352.44;5031407;28;20036;-72
2022/02/17 01:34:57;;;;;;;0.15;0.00;;;;;;;11.34;99.79;97372.06;5029305;28;20464;-72
2022/02/17 01:37:23;;;;;;;0.80;0.00;;;;;;;11.27;100.00;97388.47;5025692;28;20120;-71
2022/02/17 01:39:50;;;;;;;0.13;0.00;;;;;;;11.33;100.00;97376.66;5035194;28;20108;-71
2022/02/17 01:42:16;;;;;;;0.10;0.00;;;;;;;11.08;100.00;97365.34;5020586;28;20064;-71
2022/02/17 01:44:41;;;;;;;0.00;0.00;;;;;;;11.07;100.00;97380.78;5015531;28;20499;-71
2022/02/17 01:47:12;;;;;;;0.00;0.00;;;;;;;10.99;100.00;97391.16;5017723;28;20049;-71
2022/02/17 01:49:37;;;;;;;0.00;0.00;;;;;;;10.92;100.00;97380.47;5015454;28;20435;-71
2022/02/17 01:52:03;;;;;;;3.60;0.00;;;;;;;11.01;100.00;97389.88;5015210;28;20018;-71
2022/02/17 01:54:30;;;;;;;0.40;0.10;;;;;;;10.91;100.00;97365.31;5015085;28;20529;-71
2022/02/17 01:56:57;;;;;;;0.00;0.00;;;;;;;11.04;100.00;97394.78;5019016;28;20030;-71
2022/02/17 01:59:22;;;;;;;0.00;0.00;;;;;;;10.99;100.00;97386.56;5015153;28;20030;-71
2022/02/17 02:01:47;;;;;;;0.00;0.00;;;;;;;10.95;100.00;97385.41;5025160;28;20041;-71
2022/02/17 02:04:13;;;;;;;0.00;0.00;;;;;;;10.82;100.00;97366.72;5034872;28;20100;-70
2022/02/17 02:06:38;;;;;;;0.00;0.00;;;;;;;10.93;100.00;97377.53;5026337;28;20493;-71
2022/02/17 02:09:04;;;;;;;0.00;0.00;;;;;;;10.78;100.00;97360.19;5029225;28;20360;-71
2022/02/17 02:11:30;;;;;;;0.20;0.10;;;;;;;10.83;100.00;97379.22;5021000;28;20337;-71
2022/02/17 02:13:55;;;;;;;0.08;0.08;;;;;;;10.51;100.00;97326.38;5014144;28;20112;-71
2022/02/17 02:16:21;;;;;;;0.00;0.00;;;;;;;10.70;100.00;97348.66;5016312;28;20052;-71
2022/02/17 02:18:46;;;;;;;0.08;0.00;;;;;;;10.53;100.00;97323.41;5029805;28;20030;-71
2022/02/17 02:21:11;;;;;;;0.00;0.00;;;;;;;10.67;100.00;97330.22;5013208;28;20034;-71
2022/02/17 02:23:40;;;;;;;1.45;0.20;;;;;;;10.52;100.00;97311.78;5014590;28;20026;-71
2022/02/17 02:26:05;;;;;;;2.53;0.20;;;;;;;10.59;100.00;97333.31;5022075;28;20022;-71
2022/02/17 02:28:33;;;;;;;0.00;0.00;;;;;;;10.63;100.00;97345.25;5033893;28;20120;-71
2022/02/17 02:30:58;;;;;;;0.25;0.10;;;;;;;10.48;100.00;97331.47;5029495;28;20487;-70
2022/02/17 02:33:25;;;;;;;0.17;0.00;;;;;;;10.58;100.00;97345.16;5033008;28;20036;-71
2022/02/17 02:35:51;;;;;;;0.13;0.10;;;;;;;10.80;100.00;97372.41;5019251;28;20037;-71
2022/02/17 02:38:17;;;;;;;0.03;0.00;;;;;;;10.78;100.00;97352.06;5017116;28;20030;-71
2022/02/17 02:40:43;;;;;;;0.20;0.00;;;;;;;10.40;100.00;97297.50;5023266;28;20033;-71
2022/02/17 02:43:09;;;;;;;0.10;0.08;;;;;;;10.25;100.00;97276.34;5025462;28;20022;-71
2022/02/17 02:45:35;;;;;;;1.35;0.08;;;;;;;10.35;100.00;97293.84;5013764;28;20017;-71
2022/02/17 02:48:05;;;;;;;0.00;0.00;;;;;;;10.40;100.00;97315.59;5026086;28;20079;-71
2022/02/17 02:50:30;;;;;;;0.13;0.00;;;;;;;10.44;100.00;97330.28;5023547;28;20108;-71
2022/02/17 02:52:56;;;;;;;0.00;0.00;;;;;;;10.33;100.00;97299.50;5028536;28;20030;-71
2022/02/17 02:55:21;;;;;;;0.05;0.00;;;;;;;10.58;100.00;97315.41;5032448;28;20049;-72
2022/02/17 02:57:46;;;;;;;0.15;0.08;;;;;;;10.42;100.00;97287.25;5032683;28;20116;-71
2022/02/17 03:00:12;;;;;;;0.85;0.10;;;;;;;10.47;100.00;97271.13;5033696;28;20036;-71
2022/02/17 03:02:38;;;;;;;0.00;0.00;;;;;;;10.56;100.00;97284.25;5039091;28;20031;-71
2022/02/17 03:05:03;;;;;;;0.00;0.00;;;;;;;10.70;100.00;97312.69;5013944;28;20056;-71
2022/02/17 03:07:29;;;;;;;0.10;0.00;;;;;;;10.72;100.00;97297.03;5016083;28;20038;-71
2022/02/17 03:09:54;;;;;;;0.00;0.00;;;;;;;10.73;100.00;97296.78;5030928;28;20022;-71
2022/02/17 03:12:19;;;;;;;0.15;0.03;;;;;;;10.52;100.00;97273.94;5039775;28;20084;-71
2022/02/17 03:14:45;;;;;;;0.00;0.00;;;;;;;10.49;100.00;97274.41;5028188;28;20029;-71
2022/02/17 03:17:10;;;;;;;0.75;0.00;;;;;;;10.70;100.00;97297.28;5016638;28;20492;-71
2022/02/17 03:19:35;;;;;;;0.70;0.00;;;;;;;10.57;100.00;97278.63;5015009;28;20026;-71
2022/02/17 03:22:01;;;;;;;0.00;0.00;;;;;;;10.63;100.00;97295.78;5020754;28;20108;-70
2022/02/17 03:27:00;;;;;;;0.00;0.00;;;;;;;10.84;100.00;97315.91;5005310;28;20419;-71
2022/02/17 03:29:26;;;;;;;0.13;0.00;;;;;;;10.79;100.00;97307.69;5012529;28;20029;-71
2022/02/17 03:31:52;;;;;;;1.08;0.00;;;;;;;10.88;100.00;97301.69;5007049;28;20207;-71
2022/02/17 03:34:17;;;;;;;0.10;0.10;;;;;;;10.85;100.00;97301.34;5010172;28;20132;-71
2022/02/17 03:36:43;;;;;;;0.43;0.10;;;;;;;10.90;100.00;97312.25;4985937;28;20046;-71
2022/02/17 03:39:08;;;;;;;3.13;0.00;;;;;;;10.72;100.00;97278.13;4991904;28;20105;-71
2022/02/17 03:41:33;;;;;;;0.63;0.10;;;;;;;10.91;100.00;97303.06;4993584;28;20023;-71
2022/02/17 03:43:59;;;;;;;1.25;0.03;;;;;;;10.93;100.00;97290.13;4990711;28;20036;-71
2022/02/17 03:46:24;;;;;;;0.00;0.00;;;;;;;11.03;100.00;97311.97;4987557;28;20022;-71
2022/02/17 03:48:50;;;;;;;0.08;0.00;;;;;;;11.05;100.00;97298.19;4990414;28;20066;-71
2022/02/17 03:51:15;;;;;;;0.08;0.03;;;;;;;10.94;100.00;97308.81;4990909;28;20396;-71
2022/02/17 03:53:40;;;;;;;0.00;0.00;;;;;;;10.93;100.00;97306.38;4975039;28;20030;-71
2022/02/17 03:56:06;;;;;;;0.22;0.00;;;;;;;10.95;100.00;97299.66;4989137;28;20027;-71
2022/02/17 04:01:15;;;;;;;0.10;0.00;;;;;;;11.21;100.00;97329.84;4991973;28;20045;-70
2022/02/17 04:03:40;;;;;;;0.00;0.00;;;;;;;11.53;100.00;97300.38;4992209;28;20030;-71
2022/02/17 04:06:06;;;;;;;0.00;0.00;;;;;;;11.58;100.00;97278.78;4987039;28;20049;-75
2022/02/17 04:08:31;;;;;;;0.15;0.00;;;;;;;11.71;99.78;97282.19;4984719;28;20030;-74
2022/02/17 04:10:57;;;;;;;0.47;0.00;;;;;;;11.82;98.51;97309.22;4988241;28;20034;-73
2022/02/17 04:13:22;;;;;;;0.15;0.10;;;;;;;11.81;97.15;97298.59;4982944;28;20062;-73
2022/02/17 04:15:47;;;;;;;0.00;0.00;;;;;;;11.89;98.71;97324.50;4992971;28;20392;-73
2022/02/17 04:18:13;;;;;;;0.00;0.00;;;;;;;11.72;100.00;97336.16;4989457;28;20070;-75
2022/02/17 04:20:39;;;;;;;0.00;0.00;;;;;;;11.72;99.47;97341.56;4993417;28;20471;-75
2022/02/17 04:23:04;;;;;;;0.00;0.00;;;;;;;11.96;96.65;97328.69;4986208;28;20032;-74
2022/02/17 04:25:30;;;;;;;0.00;0.00;;;;;;;11.89;96.45;97330.75;4988105;28;20117;-75
2022/02/17 04:27:55;;;;;;;0.10;0.10;;;;;;;12.00;93.46;97319.00;4978454;28;20038;-73
2022/02/17 04:30:20;;;;;;;0.17;0.00;;;;;;;12.11;92.00;97332.69;4974980;28;20031;-74
2022/02/17 04:32:46;;;;;;;0.68;0.10;;;;;;;12.18;92.54;97327.91;4990410;28;20479;-74
2022/02/17 04:35:11;;;;;;;0.00;0.00;;;;;;;12.02;95.17;97338.53;4992200;28;20030;-74
2022/02/17 04:37:37;;;;;;;0.17;0.00;;;;;;;11.89;96.75;97343.47;4979394;28;20053;-73
2022/02/17 04:40:02;;;;;;;0.52;0.00;;;;;;;11.84;97.30;97364.00;4993130;28;20026;-74
2022/02/17 04:42:28;;;;;;;0.20;0.00;;;;;;;11.82;97.77;97357.16;4993371;28;20105;-75
2022/02/17 04:44:54;;;;;;;0.25;0.05;;;;;;;11.71;99.73;97363.47;4989432;28;20022;-74
2022/02/17 04:47:20;;;;;;;0.00;0.00;;;;;;;11.81;98.31;97348.19;4997817;28;20027;-73
2022/02/17 04:49:48;;;;;;;0.10;0.00;;;;;;;11.71;99.23;97360.75;4992873;28;20031;-75
2022/02/17 04:52:13;;;;;;;0.00;0.00;;;;;;;11.78;99.15;97361.44;4989100;28;20022;-73
2022/02/17 04:54:39;;;;;;;0.00;0.00;;;;;;;11.73;98.95;97356.75;4985060;28;20053;-77
2022/02/17 04:57:05;;;;;;;0.70;0.10;;;;;;;11.77;99.12;97370.63;4991467;28;20030;-73
2022/02/17 04:59:31;;;;;;;0.32;0.00;;;;;;;11.57;100.00;97366.50;4991025;28;20454;-73
2022/02/17 05:01:57;;;;;;;0.00;0.00;;;;;;;11.63;100.00;97375.53;4986403;28;20026;-75
2022/02/17 05:04:23;;;;;;;0.50;0.00;;;;;;;11.34;100.00;97372.91;4988432;28;20100;-79
2022/02/17 05:06:48;;;;;;;0.55;0.13;;;;;;;11.45;99.23;97375.75;4989181;28;20031;-74
2022/02/17 05:09:14;;;;;;;0.35;0.10;;;;;;;11.65;99.64;97383.44;4991394;28;20032;-76
2022/02/17 05:11:39;;;;;;;0.50;0.10;;;;;;;11.65;98.42;97370.69;4991467;28;20084;-75
2022/02/17 05:14:04;;;;;;;0.00;0.00;;;;;;;11.48;100.00;97367.19;4990998;28;20048;-79
2022/02/17 05:16:32;;;;;;;0.00;0.00;;;;;;;11.61;98.83;97405.59;4990829;28;20038;-78
2022/02/17 05:18:57;;;;;;;0.00;0.00;;;;;;;11.57;98.81;97392.78;4991817;28;20038;-79
2022/02/17 05:21:22;;;;;;;0.85;0.08;;;;;;;11.62;99.38;97420.78;4992391;28;20479;-71
2022/02/17 05:23:48;;;;;;;0.65;0.00;;;;;;;11.55;100.00;97459.91;4991006;28;20030;-72
2022/02/17 05:26:13;;;;;;;0.00;0.00;;;;;;;11.52;100.00;97477.47;4987181;28;20424;-70
2022/02/17 05:28:39;;;;;;;0.85;0.00;;;;;;;11.34;100.00;97480.38;4983522;28;20034;-71
2022/02/17 05:31:04;;;;;;;0.75;0.10;;;;;;;11.23;100.00;97502.88;4993090;28;20039;-76
2022/02/17 05:33:30;;;;;;;0.65;0.20;;;;;;;10.79;100.00;97495.19;4986814;28;20027;-74
2022/02/17 05:35:55;;;;;;;2.05;0.25;;;;;;;10.41;100.00;97476.75;4991183;28;20109;-76
2022/02/17 05:38:21;;;;;;;1.20;0.40;;;;;;;10.13;100.00;97485.50;4987024;28;20041;-76
2022/02/17 05:40:46;;;;;;;2.58;0.40;;;;;;;10.08;100.00;97480.78;4988804;28;20032;-76
2022/02/17 05:43:11;;;;;;;2.58;0.47;;;;;;;10.19;100.00;97511.59;4992374;28;20024;-76
2022/02/17 05:45:37;;;;;;;6.35;0.60;;;;;;;10.29;99.23;97520.81;4998348;28;20086;-75
2022/02/17 05:48:02;;;;;;;3.17;0.95;;;;;;;10.50;93.24;97491.56;5005886;28;20110;-79
2022/02/17 05:50:28;;;;;;;3.42;0.60;;;;;;;10.71;90.70;97526.13;5009384;28;20026;-74
2022/02/17 05:52:54;;;;;;;7.47;0.80;;;;;;;10.60;89.04;97480.97;5000868;28;20030;-75
2022/02/17 05:55:19;;;;;;;6.25;0.90;;;;;;;10.54;88.83;97468.41;5009242;28;20029;-78
2022/02/17 05:57:45;;;;;;;4.28;0.45;;;;;;;10.46;89.50;97509.31;5014505;28;20025;-74
2022/02/17 06:00:11;;;;;;;4.65;0.80;;;;;;;10.40;89.08;97512.94;4999837;28;20363;-75
2022/02/17 06:02:37;;;;;;;5.65;0.90;;;;;;;10.62;87.95;97540.25;4993597;28;20607;-76
2022/02/17 06:05:03;;;;;;;5.43;0.70;;;;;;;10.62;86.72;97551.88;4995551;28;20046;-75
2022/02/17 06:07:29;;;;;;;5.55;1.15;;;;;;;10.56;86.94;97549.28;4993510;28;20026;-79
2022/02/17 06:09:54;;;;;;;4.75;0.90;;;;;;;10.48;82.60;97493.69;4993475;28;20076;-76
2022/02/17 06:12:19;;;;;;;6.47;1.20;;;;;;;10.74;81.49;97530.25;4995607;28;20456;-80
2022/02/17 06:14:45;;;;;;;6.18;0.88;;;;;;;10.68;80.63;97550.94;5005942;28;20038;-81
2022/02/17 06:17:10;;;;;;;8.38;1.15;;;;;;;10.70;82.15;97594.81;4999347;28;20429;-81
2022/02/17 06:19:35;;;;;;;12.07;1.05;;;;;;;10.19;81.47;97489.97;4996971;28;20034;-76
2022/02/17 06:22:02;;;;;;;8.73;1.30;;;;;;;10.61;79.33;97538.59;4992715;28;20542;-77
2022/02/17 06:24:27;;;;;;;9.18;1.27;;;;;;;10.69;78.87;97544.50;4977356;28;20058;-77
2022/02/17 06:26:53;;;;;;;8.60;1.00;;;;;;;10.65;78.23;97532.47;4976900;28;20401;-78
2022/02/17 06:29:18;;;;;;;6.47;1.00;;;;;;;10.68;76.99;97533.91;4987660;28;20077;-76
2022/02/17 06:31:44;;;;;;;5.07;1.10;;;;;;;10.49;77.90;97571.03;4992550;28;20776;-73
2022/02/17 06:34:10;;;;;;;6.20;1.20;;;;;;;10.62;77.56;97575.41;4976013;28;20023;-75
2022/02/17 06:36:35;;;;;;;7.88;1.25;;;;;;;10.44;77.91;97552.81;4974980;28;20034;-75
2022/02/17 06:39:01;;;;;;;7.13;1.15;;;;;;;10.58;78.09;97585.03;4990763;28;20048;-77
2022/02/17 06:41:27;;;;;;;6.57;1.05;;;;;;;10.50;76.98;97584.31;4996766;28;20027;-83
2022/02/17 06:43:53;;;;;;;3.65;1.00;;;;;;;10.43;77.30;97564.69;4993758;28;20464;-75
2022/02/17 06:46:18;;;;;;;6.93;1.13;;;;;;;10.51;77.23;97580.56;5007098;28;20022;-76
2022/02/17 06:48:44;;;;;;;9.45;1.75;;;;;;;10.56;76.86;97588.00;5016647;28;20029;-79
2022/02/17 06:51:09;;;;;;;8.43;1.23;;;;;;;10.55;77.44;97621.50;4990699;28;20027;-77
2022/02/17 06:53:34;;;;;;;13.32;1.27;;;;;;;10.57;78.04;97635.59;4990405;28;20022;-77
2022/02/17 06:56:00;;;;;;;9.65;1.20;;;;;;;10.53;78.81;97620.88;4991933;28;20383;-74
2022/02/17 06:58:25;;;;;;;9.52;1.27;;;;;;;10.52;79.75;97622.78;4994122;28;20038;-74
2022/02/17 07:00:51;;;;;;;8.75;1.42;;;;;;;10.52;79.74;97630.06;4994525;28;20037;-76
2022/02/17 07:03:16;;;;;;;8.60;1.33;;;;;;;10.68;79.84;97645.63;4982196;28;20023;-77
2022/02/17 07:05:41;;;;;;;7.57;1.10;;;;;;;10.70;79.51;97640.00;4985172;28;20080;-74
2022/02/17 07:08:07;;;;;;;9.55;1.27;;;;;;;10.81;78.83;97655.41;4981962;28;20019;-76
2022/02/17 07:13:17;;;;;;;6.97;0.93;;;;;;;10.74;81.32;97642.00;4998380;28;20082;-78
2022/02/17 07:15:44;;;;;;;10.93;1.02;;;;;;;10.84;81.96;97668.47;4995456;28;20046;-73
2022/02/17 07:18:10;;;;;;;6.13;0.93;;;;;;;10.79;82.13;97668.34;4995576;28;20122;-70
2022/02/17 07:20:37;;;;;;;4.53;1.13;;;;;;;10.91;82.31;97714.38;4993103;28;20042;-74
2022/02/17 09:13:58;;;;;;;9.82;2.25;;;;;;;15.89;46.74;97897.28;5106363;27;20412;-75
2022/02/17 09:16:24;;;;;;;16.58;4.88;;;;;;;14.52;48.80;97904.69;5083014;28;20025;-72
2022/02/17 09:18:49;;;;;;;15.68;3.10;;;;;;;13.13;52.35;97931.41;5077536;28;20078;-78
2022/02/17 09:21:16;;;;;;;13.68;3.13;;;;;;;12.43;53.70;97910.63;5059099;28;20087;-75
2022/02/17 09:23:41;;;;;;;9.63;1.80;;;;;;;12.02;54.57;97942.22;5105468;23;20052;-71
2022/02/17 09:26:08;;;;;;;10.98;1.98;;;;;;;12.42;53.83;97947.78;5064830;28;20046;-73
2022/02/17 09:28:34;;;;;;;13.25;1.90;;;;;;;12.41;53.42;97934.47;5066281;28;20075;-75
2022/02/17 09:31:00;;;;;;;11.80;2.10;;;;;;;13.01;53.16;97961.28;5066609;28;20025;-74
2022/02/17 09:33:25;;;;;;;13.50;2.25;;;;;;;12.84;52.37;97958.50;5071469;28;20146;-75
2022/02/17 09:35:55;;;;;;;18.27;2.50;;;;;;;13.97;49.15;97918.00;5079949;28;20055;-75
2022/02/17 09:38:21;;;;;;;18.35;3.03;;;;;;;14.76;47.12;97938.78;5086278;28;20116;-79
2022/02/17 09:40:46;;;;;;;16.67;3.53;;;;;;;14.06;47.56;97929.28;5082869;28;20447;-79
2022/02/17 09:43:12;;;;;;;10.57;1.77;;;;;;;13.68;49.02;97943.59;5077812;28;20027;-72
2022/02/17 09:45:47;;;;;;;17.05;2.42;;;;;;;14.67;47.21;97924.78;5088458;28;20093;-77
2022/02/17 09:48:12;;;;;;;10.85;2.42;;;;;;;15.76;44.96;97941.34;5088479;28;20021;-77
2022/02/17 09:50:38;;;;;;;9.73;2.30;;;;;;;15.91;43.27;97938.75;5085135;28;20031;-72
2022/02/17 09:53:05;;;;;;;13.73;2.35;;;;;;;16.17;42.30;97947.16;5081383;28;20016;-74
2022/02/17 09:55:31;;;;;;;16.08;2.70;;;;;;;14.52;44.84;97983.59;5088225;28;20058;-73
2022/02/17 09:57:56;;;;;;;10.35;2.08;;;;;;;15.73;43.93;97953.59;5083001;28;20028;-74
2022/02/17 10:00:22;;;;;;;12.25;2.10;;;;;;;16.42;42.84;97938.31;5079538;28;20020;-73
2022/02/17 10:02:47;;;;;;;13.65;2.97;;;;;;;16.71;42.10;97957.09;5092219;28;20021;-74
2022/02/17 10:05:14;;;;;;;12.65;2.35;;;;;;;17.57;40.33;97981.28;5083149;28;20043;-73
2022/02/17 10:07:44;;;;;;;10.68;2.13;;;;;;;16.22;41.77;97971.78;5083664;28;20028;-73
2022/02/17 10:10:13;;;;;;;13.82;3.03;;;;;;;14.67;45.06;97981.97;5086393;28;20031;-71
2022/02/17 10:12:55;;;;;;;12.15;2.95;;;;;;;15.52;43.21;97971.59;5078145;28;20016;-70
2022/02/17 10:15:39;;;;;;;19.05;2.63;;;;;;;15.63;43.19;97975.25;5061699;28;20470;-70
2022/02/17 10:18:06;;;;;;;9.98;2.15;;;;;;;15.92;44.70;97999.59;5060727;28;20032;-71
2022/02/17 10:20:54;;;;;;;12.45;2.28;;;;;;;16.64;42.08;97984.66;5062257;28;20043;-71
2022/02/17 10:23:22;;;;;;;11.75;2.30;;;;;;;16.38;41.78;98009.03;5066925;28;20120;-71
2022/02/17 10:26:03;;;;;;;11.10;2.10;;;;;;;14.55;44.72;98003.00;5072835;28;20029;-71
2022/02/17 10:28:32;;;;;;;15.73;2.80;;;;;;;13.77;46.77;98008.19;5068943;28;20110;-71
2022/02/17 10:30:59;;;;;;;12.98;2.30;;;;;;;13.02;48.21;98003.69;5071782;28;20021;-71
2022/02/17 10:33:43;;;;;;;15.20;2.92;;;;;;;12.15;49.94;97979.13;5063419;28;20111;-71
2022/02/17 10:36:09;;;;;;;17.35;3.17;;;;;;;12.75;51.06;98038.63;5069577;28;20082;-71
2022/02/17 10:38:35;;;;;;;16.38;3.28;;;;;;;12.69;50.69;97996.97;5068098;28;20024;-72
2022/02/17 10:41:00;;;;;;;20.85;2.50;;;;;;;12.69;50.68;98012.44;5062499;28;20027;-71
2022/02/17 10:43:31;;;;;;;15.25;2.55;;;;;;;12.02;51.95;97996.44;5072113;28;20032;-72
2022/02/17 10:46:08;;;;;;;18.05;3.25;;;;;;;11.92;52.71;98034.13;5071421;28;20048;-71
2022/02/17 10:48:33;;;;;;;18.70;2.55;;;;;;;11.97;53.10;98032.41;5077312;28;20035;-71
2022/02/17 10:51:10;;;;;;;14.95;2.08;;;;;;;12.11;53.62;98030.31;5080925;28;20040;-71
2022/02/17 10:53:42;;;;;;;16.27;2.65;;;;;;;12.81;52.41;98045.84;5080455;28;20081;-72
2022/02/17 10:56:10;;;;;;;16.35;2.83;;;;;;;12.90;52.34;98040.88;5085536;28;20088;-71
2022/02/17 10:58:39;;;;;;;9.35;1.92;;;;;;;13.98;49.75;98024.88;5080324;28;20028;-71
2022/02/17 11:01:08;;;;;;;14.60;1.85;;;;;;;14.60;49.18;98022.16;5085948;28;20020;-72
2022/02/17 11:03:35;;;;;;;18.92;2.83;;;;;;;14.73;48.59;98017.44;5085493;28;20060;-74
2022/02/17 11:06:02;;;;;;;11.00;2.83;;;;;;;16.70;45.69;98027.28;5072345;28;20094;-73
2022/02/17 11:08:27;;;;;;;14.00;2.47;;;;;;;16.62;44.11;98006.75;5071007;28;20032;-73
2022/02/17 11:10:53;;;;;;;18.30;2.92;;;;;;;16.33;44.00;97997.25;5074605;28;20020;-74
2022/02/17 11:13:23;;;;;;;10.55;1.98;;;;;;;15.64;44.71;98016.97;5073445;28;20047;-73
2022/02/17 11:15:49;;;;;;;12.15;2.38;;;;;;;15.93;44.18;98002.06;5071300;28;20043;-73
2022/02/17 11:18:16;;;;;;;10.68;2.03;;;;;;;14.56;45.36;98009.28;5079415;28;20021;-72
2022/02/17 11:20:43;;;;;;;8.93;1.70;;;;;;;13.30;47.64;98002.09;5082314;28;20553;-72
2022/02/17 11:23:09;;;;;;;6.80;1.90;;;;;;;14.16;48.01;98021.13;5077050;28;20070;-75
2022/02/17 11:25:44;;;;;;;8.27;2.28;;;;;;;13.65;48.18;98004.72;5084014;28;20039;-75
2022/02/17 11:28:16;;;;;;;14.07;1.95;;;;;;;14.35;47.04;98003.47;5072721;28;20070;-75
2022/02/17 11:31:04;;;;;;;11.23;1.88;;;;;;;15.50;46.87;98011.09;5070410;28;20024;-75
2022/02/17 11:33:31;;;;;;;7.97;1.77;;;;;;;14.04;48.44;98023.88;5071859;28;20093;-74
2022/02/17 11:36:24;;;;;;;12.70;2.00;;;;;;;14.61;48.49;98023.78;5071660;28;20035;-74
2022/02/17 11:38:50;;;;;;;12.20;2.00;;;;;;;15.31;47.37;98021.50;5073221;28;20012;-76
2022/02/17 11:41:20;;;;;;;12.85;1.85;;;;;;;14.74;49.42;98038.13;5089083;28;20020;-76
2022/02/17 11:43:48;;;;;;;11.82;2.45;;;;;;;14.16;49.01;98021.94;5087090;28;20027;-75
2022/02/17 11:46:14;;;;;;;10.63;2.45;;;;;;;14.04;51.16;98015.72;5090006;28;20052;-75
2022/02/17 11:48:43;;;;;;;12.35;2.50;;;;;;;15.03;47.84;98014.31;5086368;28;20020;-77
2022/02/17 11:51:22;;;;;;;9.10;2.10;;;;;;;14.90;46.49;98016.31;5089892;28;20031;-76
2022/02/17 11:53:49;;;;;;;14.70;2.13;;;;;;;14.06;52.05;98032.63;5092891;28;20022;-77
2022/02/17 11:56:15;;;;;;;8.23;2.03;;;;;;;13.97;50.95;98039.56;5090679;28;20032;-77
2022/02/17 11:58:41;;;;;;;15.75;2.17;;;;;;;14.46;49.72;98064.34;5087822;28;20088;-79
2022/02/17 12:01:21;;;;;;;12.68;1.45;;;;;;;13.93;49.23;98060.94;5084866;28;20039;-75
2022/02/17 12:04:19;;;;;;;15.10;2.15;;;;;;;13.17;51.33;98057.47;5088112;28;20028;-74
2022/02/17 12:06:47;;;;;;;18.05;2.25;;;;;;;12.42;52.49;98061.72;5074423;28;20495;-75
2022/02/17 12:09:47;;;;;;;17.05;2.28;;;;;;;13.12;51.69;98081.81;5072817;28;20070;-75
2022/02/17 12:12:13;;;;;;;12.93;2.10;;;;;;;12.70;52.41;98077.31;5071720;28;20499;-75
2022/02/17 12:14:51;;;;;;;16.67;2.47;;;;;;;12.30;52.95;98063.59;5065785;28;20036;-75
2022/02/17 12:17:29;;;;;;;17.27;2.45;;;;;;;11.89;55.91;98115.91;5070850;28;20032;-75
2022/02/17 12:20:07;;;;;;;12.63;1.95;;;;;;;11.32;59.40;98086.38;5059785;28;20036;-75
2022/02/17 12:22:33;;;;;;;17.40;2.97;;;;;;;10.99;62.36;98100.25;5072267;28;20020;-74
2022/02/17 12:25:20;;;;;;;12.43;2.90;;;;;;;10.76;61.23;98096.28;5074284;28;20036;-75
2022/02/17 12:28:01;;;;;;;20.95;3.53;;;;;;;10.91;60.18;98090.53;5072616;28;20032;-77
2022/02/17 12:30:34;;;;;;;19.88;4.25;;;;;;;11.02;61.90;98100.63;5077825;28;20028;-78
2022/02/17 12:33:11;;;;;;;18.10;3.22;;;;;;;10.90;62.55;98097.00;5092589;28;20027;-74
2022/02/17 12:35:41;;;;;;;18.42;2.65;;;;;;;10.70;60.93;98100.69;5079633;28;20100;-73
2022/02/17 12:38:12;;;;;;;16.70;2.83;;;;;;;10.75;59.92;98106.28;5073107;28;20021;-74
2022/02/17 12:40:40;;;;;;;21.95;4.20;;;;;;;10.80;57.50;98096.69;5075250;28;20024;-75
2022/02/17 12:43:11;;;;;;;16.80;3.63;;;;;;;10.80;56.21;98118.31;5078203;28;20017;-76
2022/02/17 12:45:41;;;;;;;14.30;3.53;;;;;;;11.03;56.92;98110.41;5078773;28;20024;-77
2022/02/17 12:48:08;;;;;;;21.00;3.78;;;;;;;11.12;56.62;98090.09;5072019;28;20390;-76
2022/02/17 12:50:35;;;;;;;14.23;2.13;;;;;;;11.17;56.17;98098.38;5069901;28;20440;-78
2022/02/17 12:53:04;;;;;;;25.40;3.15;;;;;;;11.00;56.87;98113.53;5074452;28;20020;-78
2022/02/17 12:55:59;;;;;;;19.10;3.28;;;;;;;10.65;58.94;98135.69;5068906;28;20012;-71
2022/02/17 12:58:29;;;;;;;13.77;3.22;;;;;;;10.59;60.73;98106.84;5049936;28;20095;-78
2022/02/17 13:00:55;;;;;;;16.02;2.85;;;;;;;10.27;60.83;98100.56;5077134;28;20024;-72
2022/02/17 13:03:42;;;;;;;18.20;3.67;;;;;;;10.56;62.74;98145.16;5074716;28;20047;-74
2022/02/17 13:06:18;;;;;;;19.75;4.20;;;;;;;10.44;64.67;98146.88;5060433;28;20479;-69
2022/02/17 13:08:52;;;;;;;20.33;4.20;;;;;;;10.35;64.38;98162.56;5076088;28;20016;-70
2022/02/17 13:11:30;;;;;;;15.07;2.92;;;;;;;10.24;64.32;98165.91;5069975;28;20036;-71
2022/02/17 13:14:09;;;;;;;14.88;2.47;;;;;;;9.95;67.25;98178.13;5074800;28;20033;-72
2022/02/17 13:16:35;;;;;;;;;;;;;;;9.96;68.28;98172.50;5067050;28;20024;-70
2022/02/17 13:19:02;;;;;;;13.77;2.15;;;;;;;9.68;70.25;98151.22;5059229;28;20023;-70
2022/02/17 13:21:27;;;;;;;15.90;2.95;;;;;;;9.73;68.94;98139.78;5063439;28;20111;-74
2022/02/17 13:24:11;;;;;;;12.80;2.28;;;;;;;9.78;68.78;98138.06;5070722;28;20558;-73
2022/02/17 13:26:38;;;;;;;18.65;2.50;;;;;;;9.86;69.34;98140.53;5069955;28;20025;-74
2022/02/17 13:29:06;;;;;;;24.88;3.00;;;;;;;10.13;68.69;98153.91;5067923;28;20029;-75